Time;durP1;ratioP1;P1;durP2;ratioP2;P2;SDS_P1;SDS_P2;PMS_P1;PMS_P2;Temp;Humidity;BMP_temperature;BMP_pressure;BME280_temperature;BME280_humidity;BME280_pressure;Samples;Min_cycle;Max_cycle;Signal;HPM_P1;HPM_P2
2022/05/23 00:01:37;;;;;;;6.43;3.80;;;;;;;21.81;42.91;100660.75;5117142;27;20481;-61
2022/05/23 00:04:05;;;;;;;8.32;4.15;;;;;;;21.80;43.53;100657.16;5133555;27;20043;-61
2022/05/23 00:06:32;;;;;;;7.65;4.13;;;;;;;21.79;43.49;100646.41;5133401;27;20039;-61
2022/05/23 00:08:58;;;;;;;6.38;3.63;;;;;;;21.77;43.14;100654.78;5126009;27;20039;-61
2022/05/23 00:11:25;;;;;;;5.93;3.38;;;;;;;21.79;43.29;100644.53;5134729;27;20408;-60
2022/05/23 00:13:53;;;;;;;7.70;3.60;;;;;;;21.80;43.25;100631.72;5134683;27;20471;-61
2022/05/23 00:16:23;;;;;;;9.63;3.72;;;;;;;21.77;43.20;100618.41;5130090;27;20036;-61
2022/05/23 00:18:50;;;;;;;5.60;3.90;;;;;;;21.77;43.54;100604.75;5112638;27;20096;-61
2022/05/23 00:21:18;;;;;;;7.05;3.83;;;;;;;21.76;43.64;100589.38;5134284;27;20482;-61
2022/05/23 00:23:49;;;;;;;8.60;4.68;;;;;;;21.75;43.51;100574.88;5134582;27;20401;-62
2022/05/23 00:26:19;;;;;;;5.10;3.70;;;;;;;21.73;43.36;100562.44;5128366;27;20122;-61
2022/05/23 00:28:47;;;;;;;8.43;4.15;;;;;;;21.71;43.42;100556.28;5134683;27;20084;-61
2022/05/23 00:31:14;;;;;;;7.88;4.78;;;;;;;21.67;43.30;100550.34;5133448;27;20043;-61
2022/05/23 00:36:28;;;;;;;7.30;4.15;;;;;;;21.59;43.58;100575.03;5133802;27;20544;-61
2022/05/23 00:38:54;;;;;;;8.00;3.60;;;;;;;21.59;43.37;100582.41;5101160;27;20044;-61
2022/05/23 00:44:25;;;;;;;5.47;3.78;;;;;;;21.58;43.52;100595.22;5128874;27;20041;-61
2022/05/23 00:46:57;;;;;;;10.88;3.90;;;;;;;21.61;43.30;100604.91;5133511;27;20034;-61
2022/05/23 00:49:33;;;;;;;8.52;4.30;;;;;;;21.62;43.29;100587.50;5123300;27;20051;-61
2022/05/23 00:52:05;;;;;;;8.35;4.50;;;;;;;21.59;43.34;100588.72;5128567;27;20061;-61
2022/05/23 00:54:40;;;;;;;8.52;3.88;;;;;;;21.59;43.62;100587.84;5133051;27;20035;-61
2022/05/23 00:57:11;;;;;;;7.28;4.20;;;;;;;21.59;43.77;100585.13;5133103;27;20412;-61
2022/05/23 00:59:40;;;;;;;8.25;4.15;;;;;;;21.57;43.44;100579.84;5133695;27;20029;-61
2022/05/23 01:02:10;;;;;;;6.18;3.90;;;;;;;21.56;43.47;100581.72;5111358;28;20043;-61
2022/05/23 01:04:44;;;;;;;8.50;4.15;;;;;;;21.56;43.63;100584.47;5117402;27;20039;-61
2022/05/23 01:07:12;;;;;;;4.38;3.60;;;;;;;21.56;43.87;100570.81;5114786;27;20484;-61
2022/05/23 01:09:39;;;;;;;6.93;3.83;;;;;;;21.55;43.61;100569.09;5133179;27;20461;-61
2022/05/23 01:12:06;;;;;;;9.02;4.10;;;;;;;21.53;44.18;100559.38;5133015;27;20074;-61
2022/05/23 01:14:57;;;;;;;6.97;4.15;;;;;;;21.50;44.02;100560.59;5097769;27;20497;-61
2022/05/23 01:17:25;;;;;;;6.53;3.58;;;;;;;21.51;43.96;100564.16;5133069;27;20484;-61
2022/05/23 01:19:52;;;;;;;5.05;3.85;;;;;;;21.48;44.10;100573.59;5133014;27;20062;-61
2022/05/23 01:22:44;;;;;;;9.18;4.57;;;;;;;21.46;44.39;100572.06;5114506;27;20553;-61
2022/05/23 01:25:39;;;;;;;5.95;4.07;;;;;;;21.46;43.91;100577.53;5111359;28;20043;-61
2022/05/23 01:28:07;;;;;;;8.00;4.20;;;;;;;21.43;43.95;100581.50;5112659;28;20050;-61
2022/05/23 01:30:35;;;;;;;7.97;3.78;;;;;;;21.42;44.18;100579.78;5110785;28;20142;-61
2022/05/23 01:33:22;;;;;;;8.93;4.80;;;;;;;21.41;44.19;100580.84;5109443;28;20040;-61
2022/05/23 01:35:49;;;;;;;5.68;3.80;;;;;;;21.42;44.51;100578.94;5114672;28;20382;-61
2022/05/23 01:38:15;;;;;;;5.25;3.88;;;;;;;21.39;44.60;100574.69;5114449;28;20047;-61
2022/05/23 01:40:48;;;;;;;9.63;3.97;;;;;;;21.37;44.61;100567.72;5114407;28;20040;-61
2022/05/23 01:43:22;;;;;;;6.30;4.60;;;;;;;21.36;44.89;100569.63;5113860;28;20135;-61
2022/05/23 01:46:08;;;;;;;5.50;4.00;;;;;;;21.38;45.00;100566.69;5130849;28;20063;-61
2022/05/23 01:48:54;;;;;;;6.80;4.03;;;;;;;21.38;44.59;100558.50;5114448;27;20472;-60
2022/05/23 01:51:22;;;;;;;8.77;3.90;;;;;;;21.37;44.73;100549.47;5135764;27;20077;-61
2022/05/23 01:53:55;;;;;;;8.82;4.45;;;;;;;21.37;45.25;100556.81;5118226;27;20043;-60
2022/05/23 01:56:22;;;;;;;11.45;4.28;;;;;;;21.35;45.22;100551.53;5118247;27;20091;-61
2022/05/23 02:01:42;;;;;;;7.72;4.10;;;;;;;21.28;44.78;100553.31;5114922;28;20039;-61
2022/05/23 02:04:17;;;;;;;10.07;4.83;;;;;;;21.26;45.09;100560.84;5128026;27;20047;-61
2022/05/23 02:06:44;;;;;;;5.57;4.10;;;;;;;21.24;45.12;100562.91;5118616;27;20035;-60
2022/05/23 02:09:28;;;;;;;5.45;4.53;;;;;;;21.22;45.05;100560.34;5118703;27;20507;-61
2022/05/23 02:12:06;;;;;;;6.43;4.18;;;;;;;21.21;45.16;100558.63;5115822;27;20043;-61
2022/05/23 02:14:34;;;;;;;6.57;4.13;;;;;;;21.19;45.64;100548.91;5118034;27;20081;-62
2022/05/23 02:17:04;;;;;;;7.07;4.28;;;;;;;21.17;45.00;100556.44;5114875;28;20032;-60
2022/05/23 02:19:31;;;;;;;10.30;4.60;;;;;;;21.14;45.28;100549.47;5134265;27;20031;-60
2022/05/23 02:22:10;;;;;;;6.65;4.53;;;;;;;21.09;45.26;100538.25;5117955;27;20046;-61
2022/05/23 02:24:40;;;;;;;7.97;4.10;;;;;;;21.08;45.40;100542.03;5114586;28;20489;-62
2022/05/23 02:27:07;;;;;;;7.90;4.32;;;;;;;21.07;45.50;100548.53;5118189;27;20059;-61
2022/05/23 02:29:37;;;;;;;9.35;4.82;;;;;;;21.06;45.60;100544.09;5118184;27;20039;-61
2022/05/23 02:32:05;;;;;;;12.32;4.60;;;;;;;21.06;45.47;100540.50;5117593;27;20394;-61
2022/05/23 02:34:34;;;;;;;5.82;4.38;;;;;;;21.03;45.66;100530.81;5117841;27;20126;-61
2022/05/23 02:37:01;;;;;;;8.52;4.75;;;;;;;20.98;45.48;100522.31;5135971;27;20074;-61
2022/05/23 02:39:39;;;;;;;6.90;4.07;;;;;;;20.92;45.78;100526.63;5117988;27;20130;-61
2022/05/23 02:42:13;;;;;;;8.50;4.80;;;;;;;20.87;45.37;100523.59;5117981;27;20062;-61
2022/05/23 02:44:41;;;;;;;7.53;4.50;;;;;;;20.79;45.94;100512.72;5136101;27;20031;-61
2022/05/23 02:47:12;;;;;;;6.22;4.28;;;;;;;20.74;45.70;100509.69;5117696;27;20043;-61
2022/05/23 02:49:39;;;;;;;8.10;4.20;;;;;;;20.71;45.77;100501.88;5136016;27;20396;-61
2022/05/23 02:52:10;;;;;;;8.13;4.28;;;;;;;20.69;45.79;100506.66;5117897;27;20074;-61
2022/05/23 02:55:01;;;;;;;10.82;5.15;;;;;;;20.68;45.83;100504.13;5117865;27;20139;-61
2022/05/23 02:57:29;;;;;;;6.55;4.00;;;;;;;20.67;46.24;100496.97;5117307;27;20047;-61
2022/05/23 02:59:56;;;;;;;9.00;4.85;;;;;;;20.63;46.44;100494.59;5097452;28;20518;-61
2022/05/23 03:05:09;;;;;;;5.45;4.35;;;;;;;20.61;46.20;100484.91;5114058;28;20517;-61
2022/05/23 03:07:36;;;;;;;8.57;4.40;;;;;;;20.60;46.27;100480.47;5114073;28;20075;-60
2022/05/23 03:10:06;;;;;;;7.45;4.72;;;;;;;20.57;46.36;100473.50;5114307;28;20044;-61
2022/05/23 03:12:34;;;;;;;6.38;4.75;;;;;;;20.58;46.81;100467.03;5117656;27;20092;-61
2022/05/23 03:15:05;;;;;;;6.95;4.32;;;;;;;20.55;46.38;100453.75;5118582;27;20512;-61
2022/05/23 03:17:33;;;;;;;6.75;4.45;;;;;;;20.52;46.51;100445.09;5117595;27;20405;-61
2022/05/23 03:20:00;;;;;;;8.63;4.60;;;;;;;20.50;46.64;100438.97;5117445;27;20039;-61
2022/05/23 03:28:01;;;;;;;6.07;5.13;;;;;;;20.44;46.99;100404.22;5114160;28;20031;-61
2022/05/23 03:30:31;;;;;;;14.75;5.47;;;;;;;20.43;46.91;100408.84;5112806;28;20070;-61
2022/05/23 03:32:58;;;;;;;9.10;5.55;;;;;;;20.44;47.00;100406.97;5115116;27;20058;-61
2022/05/23 03:35:30;;;;;;;10.52;5.30;;;;;;;20.48;46.78;100403.69;5134313;27;20164;-61
2022/05/23 03:37:59;;;;;;;6.45;5.15;;;;;;;20.50;47.12;100404.34;5115555;27;20154;-61
2022/05/23 03:40:29;;;;;;;9.82;5.35;;;;;;;20.54;46.76;100408.41;5116023;27;20041;-60
2022/05/23 03:43:00;;;;;;;8.15;5.20;;;;;;;20.57;46.60;100399.00;5115454;27;20067;-61
2022/05/23 03:45:30;;;;;;;9.80;6.30;;;;;;;20.57;47.04;100388.09;5115925;27;20051;-60
2022/05/23 03:47:57;;;;;;;7.80;5.57;;;;;;;20.58;46.94;100384.31;5115637;27;20145;-61
2022/05/23 03:50:26;;;;;;;10.10;4.97;;;;;;;20.58;47.05;100376.16;5115514;27;20440;-61
2022/05/23 03:52:55;;;;;;;7.88;5.60;;;;;;;20.57;47.43;100371.72;5111701;28;20565;-60
2022/05/23 03:55:26;;;;;;;8.18;5.68;;;;;;;20.54;47.13;100361.19;5111881;28;20052;-61
2022/05/23 03:58:08;;;;;;;9.45;5.45;;;;;;;20.50;46.91;100363.44;5113293;28;20055;-60
2022/05/23 04:00:35;;;;;;;9.80;5.78;;;;;;;20.47;47.16;100363.78;5113567;27;20083;-61
2022/05/23 04:03:01;;;;;;;11.48;6.63;;;;;;;20.45;47.20;100356.84;5134317;27;20032;-61
2022/05/23 04:05:28;;;;;;;9.07;5.63;;;;;;;20.43;47.59;100362.47;5133762;27;20053;-61
2022/05/23 04:08:05;;;;;;;9.10;6.43;;;;;;;20.42;47.80;100368.97;5134006;27;20081;-62
2022/05/23 04:10:39;;;;;;;9.73;5.43;;;;;;;20.42;47.70;100359.94;5115230;27;20039;-61
2022/05/23 04:13:09;;;;;;;12.43;7.22;;;;;;;20.42;47.66;100363.50;5114365;27;20050;-61
2022/05/23 04:15:35;;;;;;;7.43;5.72;;;;;;;20.42;48.02;100354.47;5115125;27;20075;-60
2022/05/23 04:18:03;;;;;;;9.35;5.78;;;;;;;20.42;48.21;100357.19;5115319;27;20092;-61
2022/05/23 04:20:29;;;;;;;10.43;6.05;;;;;;;20.42;47.85;100363.50;5132805;27;20039;-61
2022/05/23 04:23:13;;;;;;;7.53;5.60;;;;;;;20.42;47.98;100363.50;5114950;27;20038;-61
2022/05/23 04:25:46;;;;;;;8.05;5.90;;;;;;;20.46;47.73;100355.81;5115168;27;20347;-61
2022/05/23 04:28:14;;;;;;;9.00;5.70;;;;;;;20.50;47.80;100357.97;5114974;27;20093;-61
2022/05/23 04:30:43;;;;;;;10.75;5.95;;;;;;;20.55;48.15;100349.22;5132645;27;20059;-61
2022/05/23 04:35:57;;;;;;;8.70;6.07;;;;;;;20.61;47.84;100332.97;5132671;27;20043;-60
2022/05/23 04:38:30;;;;;;;10.43;6.05;;;;;;;20.60;48.18;100330.44;5114729;27;20413;-61
2022/05/23 04:41:00;;;;;;;8.43;6.05;;;;;;;20.59;48.22;100328.72;5133235;27;20533;-60
2022/05/23 04:43:36;;;;;;;8.60;6.05;;;;;;;20.60;48.39;100331.28;5114660;27;20039;-60
2022/05/23 04:46:03;;;;;;;13.13;6.30;;;;;;;20.62;48.26;100323.75;5115987;27;20044;-61
2022/05/23 04:51:36;;;;;;;8.93;5.97;;;;;;;20.69;48.65;100333.91;5105721;28;20040;-61
2022/05/23 04:54:10;;;;;;;8.13;5.97;;;;;;;20.71;48.52;100326.38;5112798;28;20382;-60
2022/05/23 04:56:37;;;;;;;7.53;5.25;;;;;;;20.73;48.51;100327.91;5111366;28;20404;-61
2022/05/23 04:59:10;;;;;;;7.88;6.03;;;;;;;20.76;48.46;100327.53;5111945;28;20542;-61
2022/05/23 05:01:36;;;;;;;11.80;6.05;;;;;;;20.80;48.29;100320.66;5110974;28;20075;-61
2022/05/23 05:04:07;;;;;;;7.88;5.72;;;;;;;20.83;48.43;100316.72;5110833;28;20092;-60
2022/05/23 05:06:38;;;;;;;7.53;5.32;;;;;;;20.83;48.59;100314.00;5110446;28;20365;-61
2022/05/23 05:09:05;;;;;;;8.65;5.70;;;;;;;20.83;48.91;100297.63;5110689;28;20049;-61
2022/05/23 05:11:31;;;;;;;6.55;5.80;;;;;;;20.82;49.11;100304.13;5110578;28;20143;-60
2022/05/23 05:14:28;;;;;;;10.57;6.47;;;;;;;20.81;49.02;100296.97;5113575;27;20521;-61
2022/05/23 05:16:59;;;;;;;9.63;6.15;;;;;;;20.80;49.23;100311.63;5113762;27;20035;-61
2022/05/23 05:19:30;;;;;;;9.15;6.65;;;;;;;20.78;49.22;100300.88;5113821;28;20041;-61
2022/05/23 05:22:14;;;;;;;15.10;6.67;;;;;;;20.79;48.93;100299.84;5132253;27;20050;-61
2022/05/23 05:25:00;;;;;;;8.63;6.18;;;;;;;20.82;49.30;100304.13;5113532;27;20551;-61
2022/05/23 05:27:40;;;;;;;7.85;6.20;;;;;;;20.85;49.49;100290.94;5113743;28;20070;-61
2022/05/23 05:30:12;;;;;;;9.70;6.38;;;;;;;20.90;49.24;100283.03;5131845;28;20039;-61
2022/05/23 05:33:07;;;;;;;9.40;6.20;;;;;;;20.96;49.24;100275.97;5132524;28;20083;-61
2022/05/23 05:35:52;;;;;;;9.52;5.75;;;;;;;21.01;49.21;100275.41;5127635;28;20043;-60
2022/05/23 05:38:28;;;;;;;8.18;5.70;;;;;;;21.04;49.17;100264.09;5131582;28;20035;-60
2022/05/23 05:41:04;;;;;;;8.48;5.80;;;;;;;21.06;49.34;100267.47;5110621;28;20093;-60
2022/05/23 05:43:35;;;;;;;7.25;5.43;;;;;;;21.10;49.39;100266.06;5110110;28;20062;-61
2022/05/23 05:46:30;;;;;;;8.18;5.38;;;;;;;21.16;48.85;100259.81;5119710;28;20047;-61
2022/05/23 05:49:16;;;;;;;11.30;5.78;;;;;;;21.22;48.96;100261.78;5113915;28;20040;-61
2022/05/23 05:51:43;;;;;;;8.05;5.70;;;;;;;21.28;49.00;100252.84;5113658;28;20075;-60
2022/05/23 05:54:21;;;;;;;11.55;5.50;;;;;;;21.32;48.81;100254.16;5097466;28;20096;-61
2022/05/23 05:57:01;;;;;;;7.93;5.20;;;;;;;21.36;48.84;100247.28;5113799;28;20429;-61
2022/05/23 05:59:29;;;;;;;8.85;5.38;;;;;;;21.40;48.66;100245.00;5113560;28;20042;-61
2022/05/23 06:01:57;;;;;;;8.43;4.47;;;;;;;21.44;48.66;100246.31;5109527;28;20047;-61
2022/05/23 06:04:31;;;;;;;9.15;5.32;;;;;;;21.49;48.93;100241.94;5110197;28;20043;-61
2022/05/23 06:13:10;;;;;;;6.88;4.90;;;;;;;21.66;48.46;100239.84;5111535;28;20053;-61
2022/05/23 06:15:45;;;;;;;6.18;4.45;;;;;;;21.70;48.50;100226.63;5096557;28;20088;-60
2022/05/23 06:18:12;;;;;;;7.03;4.70;;;;;;;21.74;48.51;100231.50;5112249;28;20032;-60
2022/05/23 06:20:41;;;;;;;5.70;4.57;;;;;;;21.80;48.17;100225.25;5091930;28;20386;-60
2022/05/23 06:23:08;;;;;;;7.95;4.43;;;;;;;21.85;48.49;100222.78;5112660;28;20076;-61
2022/05/23 06:25:45;;;;;;;5.47;4.45;;;;;;;21.91;48.06;100215.66;5118851;28;20366;-61
2022/05/23 06:28:15;;;;;;;7.13;4.45;;;;;;;21.95;48.17;100208.75;5107416;28;20031;-61
2022/05/23 06:30:42;;;;;;;8.05;4.70;;;;;;;22.03;47.89;100194.13;5112816;28;20134;-60
2022/05/23 06:33:19;;;;;;;8.50;4.80;;;;;;;22.08;47.83;100192.47;5109895;28;20122;-60
2022/05/23 06:35:58;;;;;;;5.22;4.18;;;;;;;22.17;47.86;100190.44;5110437;27;20039;-60
2022/05/23 06:38:26;;;;;;;6.63;3.88;;;;;;;22.23;48.02;100184.16;5113207;28;20451;-60
2022/05/23 06:41:19;;;;;;;6.70;3.95;;;;;;;22.31;47.87;100192.25;5132127;27;20050;-60
2022/05/23 06:44:15;;;;;;;5.22;3.72;;;;;;;22.39;47.81;100180.28;5115550;27;20035;-61
2022/05/23 06:47:00;;;;;;;7.38;3.55;;;;;;;22.47;47.30;100178.22;5134758;27;20041;-59
2022/05/23 06:49:53;;;;;;;5.43;3.92;;;;;;;22.58;47.29;100173.22;5131939;27;20487;-60
2022/05/23 06:52:23;;;;;;;5.50;3.30;;;;;;;22.67;47.08;100172.84;5116822;27;20071;-61
2022/05/23 06:55:15;;;;;;;6.70;3.60;;;;;;;22.80;47.06;100177.56;5116885;27;20055;-60
2022/05/23 06:57:46;;;;;;;6.38;3.75;;;;;;;22.89;46.79;100173.59;5135196;27;20043;-61
2022/05/23 07:00:14;;;;;;;4.90;3.40;;;;;;;22.99;46.55;100184.16;5134601;27;20101;-61
2022/05/23 07:02:46;;;;;;;4.75;3.17;;;;;;;23.07;46.23;100181.28;5116555;27;20460;-62
2022/05/23 07:14:09;;;;;;;;;;;;;;;23.50;46.18;100154.38;5113253;28;20058;-61
2022/05/23 07:16:36;;;;;;;6.82;3.67;;;;;;;23.70;45.87;100160.72;5115591;27;19919;-60
2022/05/23 07:19:05;;;;;;;5.78;3.42;;;;;;;23.85;45.70;100168.78;5105298;28;20036;-61
2022/05/23 07:21:42;;;;;;;7.32;3.35;;;;;;;24.01;45.46;100171.09;5095799;28;20043;-61
2022/05/23 07:24:15;;;;;;;4.65;3.17;;;;;;;24.16;45.42;100172.75;5113062;28;20047;-60
2022/05/23 07:26:44;;;;;;;7.70;4.15;;;;;;;24.27;45.01;100172.97;5082346;28;20032;-61
2022/05/23 07:29:13;;;;;;;9.95;3.60;;;;;;;24.36;44.95;100168.94;5116365;27;20039;-61
2022/05/23 07:31:41;;;;;;;8.88;4.22;;;;;;;24.42;44.67;100172.72;5116426;27;20447;-61
2022/05/23 07:34:11;;;;;;;7.40;4.05;;;;;;;24.43;44.54;100171.66;5134701;27;20409;-61
2022/05/23 07:36:39;;;;;;;8.68;3.58;;;;;;;24.46;44.32;100171.22;5116747;27;20043;-61
2022/05/23 07:39:09;;;;;;;7.97;3.50;;;;;;;24.46;44.04;100160.25;5117338;27;20397;-61
2022/05/23 07:41:53;;;;;;;6.03;4.10;;;;;;;24.48;43.82;100151.78;5119930;27;20035;-61
2022/05/23 07:44:31;;;;;;;9.10;4.00;;;;;;;24.51;43.76;100149.47;5116695;27;20043;-60
2022/05/23 07:47:06;;;;;;;5.70;3.47;;;;;;;24.60;43.99;100150.94;5099809;27;20088;-60
2022/05/23 07:49:35;;;;;;;6.65;3.70;;;;;;;24.67;43.71;100148.16;5112250;28;20039;-62
2022/05/23 07:52:09;;;;;;;;;;;;;;;24.74;43.49;100148.13;5112499;28;20047;-61
2022/05/23 08:00:33;;;;;;;6.78;3.00;;;;;;;25.04;43.58;100143.78;5113313;27;20057;-61
2022/05/23 08:03:16;;;;;;;;;;;;;;;25.04;43.29;100149.28;5115457;27;20043;-63
2022/05/23 08:06:09;;;;;;;5.47;3.05;;;;;;;25.09;42.90;100141.22;5111877;28;20014;-62
2022/05/23 08:08:35;;;;;;;5.47;3.08;;;;;;;25.07;43.00;100139.75;5111647;28;20067;-63
2022/05/23 08:11:08;;;;;;;7.30;3.10;;;;;;;25.01;42.70;100135.97;5112877;27;20451;-62
2022/05/23 08:13:57;;;;;;;6.18;3.13;;;;;;;24.99;42.70;100130.69;5112234;27;20131;-63
2022/05/23 08:16:25;;;;;;;5.18;3.17;;;;;;;24.98;42.86;100133.66;5128439;27;20146;-63
2022/05/23 08:18:53;;;;;;;5.13;3.28;;;;;;;24.96;42.96;100119.28;5098208;27;20068;-62
2022/05/23 08:21:20;;;;;;;4.88;2.78;;;;;;;24.97;42.68;100123.72;5114703;27;20040;-62
2022/05/23 08:23:53;;;;;;;7.43;2.97;;;;;;;24.97;42.61;100104.47;5114717;27;20043;-64
2022/05/23 08:26:25;;;;;;;4.70;3.10;;;;;;;24.97;42.76;100102.59;5114683;27;20130;-62
2022/05/23 08:28:52;;;;;;;8.32;3.38;;;;;;;25.01;42.51;100108.50;5132717;27;20043;-62
2022/05/23 08:31:22;;;;;;;8.25;3.35;;;;;;;25.02;42.57;100112.94;5112820;27;20051;-62
2022/05/23 08:34:05;;;;;;;4.13;3.20;;;;;;;25.05;42.87;100120.72;5098760;27;20430;-63
2022/05/23 08:36:32;;;;;;;4.45;3.33;;;;;;;25.10;42.84;100120.91;5132301;27;20069;-63
2022/05/23 08:39:01;;;;;;;5.82;2.80;;;;;;;25.17;42.71;100115.38;5114121;27;20110;-62
2022/05/23 08:41:40;;;;;;;3.63;2.78;;;;;;;25.28;42.62;100112.78;5113958;27;20497;-60
2022/05/23 08:44:44;;;;;;;4.57;3.13;;;;;;;25.40;42.71;100110.16;5132325;27;20142;-61
2022/05/23 08:47:30;;;;;;;5.68;3.03;;;;;;;25.53;42.83;100107.31;5114156;27;20142;-61
2022/05/23 08:50:20;;;;;;;5.82;3.08;;;;;;;25.64;42.27;100102.97;5113657;27;20058;-61
2022/05/23 08:53:08;;;;;;;6.05;3.65;;;;;;;25.79;42.11;100094.41;5106607;27;20082;-61
2022/05/23 08:56:04;;;;;;;5.43;3.83;;;;;;;25.91;41.83;100087.94;5131899;27;20104;-60
2022/05/23 08:58:52;;;;;;;5.50;4.22;;;;;;;26.00;41.76;100079.38;5113208;27;20059;-60
2022/05/23 09:01:24;;;;;;;4.78;3.28;;;;;;;26.07;41.43;100086.53;5130930;27;20031;-60
2022/05/23 09:04:15;;;;;;;7.80;4.07;;;;;;;26.12;41.46;100072.91;5132267;27;20076;-60
2022/05/23 09:06:47;;;;;;;5.75;4.00;;;;;;;26.20;41.16;100071.75;5113801;27;20497;-61
2022/05/23 09:09:17;;;;;;;4.38;3.65;;;;;;;26.28;41.28;100072.28;5132097;27;20043;-60
2022/05/23 09:11:50;;;;;;;7.10;3.88;;;;;;;26.33;41.22;100062.53;5132092;27;20047;-62
2022/05/23 09:14:20;;;;;;;4.97;3.60;;;;;;;26.39;41.11;100067.13;5131991;27;20046;-60
2022/05/23 09:16:50;;;;;;;8.50;3.90;;;;;;;26.45;40.99;100067.03;5131148;27;20047;-62
2022/05/23 09:19:31;;;;;;;6.20;4.10;;;;;;;26.49;40.94;100059.16;5131096;27;20047;-62
2022/05/23 09:22:20;;;;;;;5.22;4.10;;;;;;;26.52;41.06;100053.19;5131991;27;20528;-62
2022/05/23 09:24:55;;;;;;;6.22;4.30;;;;;;;26.56;40.91;100052.47;5112479;28;20043;-62
2022/05/23 09:28:06;;;;;;;7.03;4.93;;;;;;;26.54;40.65;100043.59;5131950;27;20442;-62
2022/05/23 09:30:37;;;;;;;6.75;4.80;;;;;;;26.55;40.75;100037.03;5132123;28;20118;-62
2022/05/23 09:33:14;;;;;;;6.35;4.10;;;;;;;26.53;40.40;100025.41;5131192;28;20047;-62
2022/05/23 09:36:20;;;;;;;7.20;4.15;;;;;;;26.44;40.46;100007.53;5131589;28;20043;-62
2022/05/23 09:38:59;;;;;;;6.13;4.03;;;;;;;26.42;40.63;99992.31;5070843;28;20055;-61
2022/05/23 09:47:54;;;;;;;5.32;4.18;;;;;;;26.22;40.79;99987.06;5131873;28;20057;-62
2022/05/23 09:50:31;;;;;;;8.70;3.70;;;;;;;26.17;40.81;99978.66;5131420;28;20074;-62
2022/05/23 09:53:17;;;;;;;6.72;4.43;;;;;;;26.18;40.98;99985.84;5131467;28;20057;-63
2022/05/23 09:55:45;;;;;;;5.38;3.90;;;;;;;26.20;41.14;99975.44;5113132;28;20515;-62
2022/05/23 09:58:21;;;;;;;5.20;3.65;;;;;;;26.17;40.93;99964.88;5113627;28;20054;-62
2022/05/23 10:01:02;;;;;;;4.40;3.42;;;;;;;26.15;41.19;99954.13;5131868;28;20058;-61
2022/05/23 10:03:31;;;;;;;5.25;3.78;;;;;;;26.20;41.07;99950.66;5113161;28;20047;-62
2022/05/23 10:06:12;;;;;;;9.00;3.80;;;;;;;26.19;40.97;99949.81;5131674;28;20457;-62
2022/05/23 10:08:42;;;;;;;4.65;4.20;;;;;;;26.23;40.95;99942.78;5131080;28;20443;-62
2022/05/23 10:11:35;;;;;;;5.50;3.40;;;;;;;26.30;40.96;99945.44;5114186;27;20412;-62
2022/05/23 10:14:14;;;;;;;5.13;3.60;;;;;;;26.36;41.02;99938.19;5135298;27;20051;-62
2022/05/23 10:16:56;;;;;;;5.15;2.88;;;;;;;26.39;41.13;99924.78;5135364;27;20081;-61
2022/05/23 10:19:33;;;;;;;6.45;3.20;;;;;;;26.47;40.94;99929.13;5135212;27;20430;-62
2022/05/23 10:22:15;;;;;;;6.70;3.25;;;;;;;26.55;40.61;99929.63;5135301;27;20122;-62
2022/05/23 10:24:56;;;;;;;5.32;3.65;;;;;;;26.65;40.71;99928.22;5135127;27;20412;-62
2022/05/23 10:27:48;;;;;;;5.55;3.45;;;;;;;26.77;40.72;99929.09;5134669;27;20569;-63
2022/05/23 10:30:18;;;;;;;9.55;3.90;;;;;;;26.90;40.73;99937.16;5134674;27;20058;-62
2022/05/23 10:32:52;;;;;;;8.18;3.97;;;;;;;27.03;40.81;99934.19;5134944;27;20496;-62
2022/05/23 10:35:23;;;;;;;5.68;3.90;;;;;;;27.15;40.77;99935.03;5134897;27;20118;-62
2022/05/23 10:37:51;;;;;;;5.65;2.95;;;;;;;27.25;40.56;99936.38;5135599;27;20045;-62
2022/05/23 10:43:04;;;;;;;7.15;3.58;;;;;;;27.43;39.88;99931.56;5134878;27;20490;-62
2022/05/23 10:45:46;;;;;;;6.22;3.55;;;;;;;27.50;39.44;99931.44;5134451;27;20142;-62
2022/05/23 10:48:30;;;;;;;6.13;3.38;;;;;;;27.58;39.29;99922.81;5134934;27;20050;-61
2022/05/23 10:50:56;;;;;;;6.97;3.95;;;;;;;27.73;39.41;99916.81;5134539;27;20461;-61
2022/05/23 10:54:00;;;;;;;6.15;3.20;;;;;;;27.91;39.14;99904.75;5134651;27;20050;-61
2022/05/23 10:56:52;;;;;;;8.88;3.53;;;;;;;28.13;39.17;99914.88;5134996;27;20031;-61
2022/05/23 10:59:47;;;;;;;6.82;4.90;;;;;;;28.30;39.50;99908.63;5134892;27;20044;-61
2022/05/23 11:02:32;;;;;;;5.85;4.18;;;;;;;28.45;39.03;99895.09;5134581;27;20360;-61
2022/05/23 11:05:13;;;;;;;6.97;3.75;;;;;;;28.61;38.54;99874.09;5134241;27;20032;-61
2022/05/23 11:08:00;;;;;;;11.38;3.88;;;;;;;28.79;38.24;99873.84;5134722;27;20055;-62
2022/05/23 11:10:32;;;;;;;11.40;4.72;;;;;;;28.92;38.30;99869.91;5134094;27;20054;-61
2022/05/23 11:13:04;;;;;;;5.72;3.60;;;;;;;29.08;38.16;99861.63;5134590;27;20512;-62
2022/05/23 11:16:01;;;;;;;9.63;3.25;;;;;;;29.24;37.79;99843.34;5134504;27;20067;-62
2022/05/23 11:18:50;;;;;;;7.22;3.63;;;;;;;29.45;37.40;99844.47;5134585;27;20416;-62
2022/05/23 11:21:36;;;;;;;6.65;3.60;;;;;;;29.60;37.26;99832.75;5134141;27;20047;-61
2022/05/23 11:24:10;;;;;;;7.53;3.67;;;;;;;29.74;37.01;99831.28;5133471;27;20055;-61
2022/05/23 11:26:50;;;;;;;8.00;3.47;;;;;;;29.82;36.64;99817.00;5134529;27;20066;-62
2022/05/23 11:35:12;;;;;;;6.63;3.20;;;;;;;30.29;36.03;99792.28;5134212;27;20493;-61
2022/05/23 11:37:45;;;;;;;6.72;3.22;;;;;;;30.40;35.94;99784.06;5115528;27;20043;-62
2022/05/23 11:40:38;;;;;;;6.38;2.90;;;;;;;30.49;35.25;99772.25;5133394;27;20034;-62
2022/05/23 11:43:05;;;;;;;5.75;3.08;;;;;;;30.55;35.19;99773.13;5115027;27;20035;-62
2022/05/23 11:48:41;;;;;;;3.70;2.20;;;;;;;30.59;34.72;99760.44;5118999;27;20043;-62
2022/05/23 11:51:24;;;;;;;5.43;1.88;;;;;;;30.64;34.42;99763.25;5114988;27;20361;-61
2022/05/23 11:53:59;;;;;;;4.22;2.35;;;;;;;30.65;34.32;99757.44;5133869;27;20400;-62
2022/05/23 11:56:48;;;;;;;3.25;2.08;;;;;;;30.65;33.88;99745.50;5132989;27;20556;-62
2022/05/23 11:59:23;;;;;;;6.30;2.40;;;;;;;30.76;34.12;99743.63;5133500;27;20050;-61
2022/05/23 12:02:08;;;;;;;3.92;2.28;;;;;;;30.85;34.13;99739.25;5133525;27;20046;-62
2022/05/23 12:04:44;;;;;;;2.95;2.30;;;;;;;30.90;33.74;99747.59;5133729;27;20046;-62
2022/05/23 12:07:45;;;;;;;4.55;2.25;;;;;;;30.89;33.86;99744.00;5133453;27;20054;-61
2022/05/23 12:10:28;;;;;;;5.35;2.00;;;;;;;30.85;33.54;99740.09;5111358;28;20482;-61
2022/05/23 12:12:56;;;;;;;3.13;1.70;;;;;;;30.84;33.19;99732.88;5113439;28;20126;-62
2022/05/23 12:15:48;;;;;;;4.38;2.00;;;;;;;30.83;33.34;99724.81;5114631;27;20032;-61
2022/05/23 12:18:22;;;;;;;4.45;2.00;;;;;;;30.86;33.35;99721.50;5114711;27;20043;-61
2022/05/23 12:21:28;;;;;;;5.05;2.22;;;;;;;30.80;33.08;99720.66;5134048;27;20043;-62
2022/05/23 12:24:17;;;;;;;6.88;2.03;;;;;;;30.70;32.91;99717.00;5132767;27;20050;-62
2022/05/23 12:27:07;;;;;;;4.57;1.98;;;;;;;30.65;33.16;99715.03;5132959;27;20039;-62
2022/05/23 12:29:37;;;;;;;2.88;1.77;;;;;;;30.60;33.10;99715.84;5132191;27;20031;-61
2022/05/23 12:32:20;;;;;;;5.20;1.80;;;;;;;30.54;33.23;99708.56;5132305;27;20512;-62
2022/05/23 12:34:52;;;;;;;6.70;2.35;;;;;;;30.53;33.05;99708.81;5131122;27;20485;-62
2022/05/23 12:37:33;;;;;;;6.28;2.40;;;;;;;30.44;33.05;99718.72;5131805;27;20047;-61
2022/05/23 12:40:17;;;;;;;3.92;2.95;;;;;;;30.30;33.22;99710.84;5113428;27;20082;-61
2022/05/23 12:42:58;;;;;;;7.65;2.58;;;;;;;30.16;33.49;99712.41;5132273;27;20043;-61
2022/05/23 12:45:40;;;;;;;5.22;2.45;;;;;;;30.07;33.66;99705.69;5132428;27;20417;-61
2022/05/23 12:48:24;;;;;;;10.73;2.78;;;;;;;30.00;33.79;99696.75;5132168;27;20058;-61
2022/05/23 12:51:14;;;;;;;6.50;2.78;;;;;;;29.96;33.90;99692.84;5131973;27;20099;-61
2022/05/23 12:53:50;;;;;;;5.60;2.63;;;;;;;29.89;34.04;99695.00;5131922;27;20397;-61
2022/05/23 12:56:58;;;;;;;6.72;2.20;;;;;;;29.84;34.08;99695.78;5132333;27;20035;-61
2022/05/23 12:59:39;;;;;;;4.43;2.30;;;;;;;29.80;34.18;99689.09;5131758;27;20075;-61
2022/05/23 13:02:26;;;;;;;3.22;2.05;;;;;;;29.76;34.50;99681.59;5112026;28;20031;-62
2022/05/23 13:04:53;;;;;;;5.10;2.33;;;;;;;29.73;34.23;99664.41;5111474;28;20532;-62
2022/05/23 13:07:58;;;;;;;5.30;2.20;;;;;;;29.65;34.39;99669.56;5111837;28;20393;-61